sensor_id;sensor_type;location;lat;lon;timestamp;temperature;humidity
5334;DHT22;2689;50.954;7.116;2023-07-31T00:02:01;17.20;99.90
5334;DHT22;2689;50.954;7.116;2023-07-31T00:04:29;17.20;99.90
5334;DHT22;2689;50.954;7.116;2023-07-31T00:06:56;17.20;99.90
5334;DHT22;2689;50.954;7.116;2023-07-31T00:09:22;17.30;99.90
5334;DHT22;2689;50.954;7.116;2023-07-31T00:11:49;17.40;99.90
5334;DHT22;2689;50.954;7.116;2023-07-31T00:14:16;17.40;99.90
5334;DHT22;2689;50.954;7.116;2023-07-31T00:16:43;17.30;99.90
5334;DHT22;2689;50.954;7.116;2023-07-31T00:19:10;17.40;99.90
5334;DHT22;2689;50.954;7.116;2023-07-31T00:21:38;17.30;99.90
5334;DHT22;2689;50.954;7.116;2023-07-31T00:24:06;17.40;99.90
5334;DHT22;2689;50.954;7.116;2023-07-31T00:26:32;17.40;99.90
5334;DHT22;2689;50.954;7.116;2023-07-31T00:28:59;17.40;99.90
5334;DHT22;2689;50.954;7.116;2023-07-31T00:31:26;17.40;99.90
5334;DHT22;2689;50.954;7.116;2023-07-31T00:33:53;17.40;99.90
5334;DHT22;2689;50.954;7.116;2023-07-31T00:36:19;17.30;99.90
5334;DHT22;2689;50.954;7.116;2023-07-31T00:38:47;17.30;99.90
5334;DHT22;2689;50.954;7.116;2023-07-31T00:41:14;17.40;99.90
5334;DHT22;2689;50.954;7.116;2023-07-31T00:43:41;17.30;99.90
5334;DHT22;2689;50.954;7.116;2023-07-31T00:46:08;17.30;99.90
5334;DHT22;2689;50.954;7.116;2023-07-31T00:48:35;17.40;99.90
5334;DHT22;2689;50.954;7.116;2023-07-31T00:51:02;17.40;99.90
5334;DHT22;2689;50.954;7.116;2023-07-31T00:53:29;17.40;99.90
5334;DHT22;2689;50.954;7.116;2023-07-31T00:55:57;17.40;99.90
5334;DHT22;2689;50.954;7.116;2023-07-31T00:58:24;17.40;99.90
5334;DHT22;2689;50.954;7.116;2023-07-31T01:00:53;17.40;99.90
5334;DHT22;2689;50.954;7.116;2023-07-31T01:03:20;17.50;99.90
5334;DHT22;2689;50.954;7.116;2023-07-31T01:05:56;17.40;99.90
5334;DHT22;2689;50.954;7.116;2023-07-31T01:08:32;17.50;99.90
5334;DHT22;2689;50.954;7.116;2023-07-31T01:11:08;17.50;99.90
5334;DHT22;2689;50.954;7.116;2023-07-31T01:13:37;17.50;99.90
5334;DHT22;2689;50.954;7.116;2023-07-31T01:16:04;17.50;99.90
5334;DHT22;2689;50.954;7.116;2023-07-31T01:18:31;17.50;99.90
5334;DHT22;2689;50.954;7.116;2023-07-31T01:21:03;17.50;99.90
5334;DHT22;2689;50.954;7.116;2023-07-31T01:23:50;17.50;99.90
5334;DHT22;2689;50.954;7.116;2023-07-31T01:26:21;17.50;99.90
5334;DHT22;2689;50.954;7.116;2023-07-31T01:28:55;17.50;99.90
5334;DHT22;2689;50.954;7.116;2023-07-31T01:31:24;17.50;99.90
5334;DHT22;2689;50.954;7.116;2023-07-31T01:33:53;17.50;99.90
5334;DHT22;2689;50.954;7.116;2023-07-31T01:36:20;17.60;99.90
5334;DHT22;2689;50.954;7.116;2023-07-31T01:38:47;17.50;99.90
5334;DHT22;2689;50.954;7.116;2023-07-31T01:41:16;17.60;99.90
5334;DHT22;2689;50.954;7.116;2023-07-31T01:43:44;17.60;99.90
5334;DHT22;2689;50.954;7.116;2023-07-31T01:46:11;17.60;99.90
5334;DHT22;2689;50.954;7.116;2023-07-31T01:48:37;17.60;99.90
5334;DHT22;2689;50.954;7.116;2023-07-31T01:51:04;17.60;99.90
5334;DHT22;2689;50.954;7.116;2023-07-31T01:53:31;17.70;99.90
5334;DHT22;2689;50.954;7.116;2023-07-31T01:55:58;17.70;99.90
5334;DHT22;2689;50.954;7.116;2023-07-31T01:58:25;17.80;99.90
5334;DHT22;2689;50.954;7.116;2023-07-31T02:00:53;17.70;99.90
5334;DHT22;2689;50.954;7.116;2023-07-31T02:03:20;17.70;99.90
5334;DHT22;2689;50.954;7.116;2023-07-31T02:05:47;17.70;99.90
5334;DHT22;2689;50.954;7.116;2023-07-31T02:08:16;17.70;99.90
5334;DHT22;2689;50.954;7.116;2023-07-31T02:10:43;17.70;99.90
5334;DHT22;2689;50.954;7.116;2023-07-31T02:13:10;17.70;99.90
5334;DHT22;2689;50.954;7.116;2023-07-31T02:15:36;17.80;99.90
5334;DHT22;2689;50.954;7.116;2023-07-31T02:18:05;17.80;99.90
5334;DHT22;2689;50.954;7.116;2023-07-31T02:20:33;17.80;99.90
5334;DHT22;2689;50.954;7.116;2023-07-31T02:23:00;17.80;99.90
5334;DHT22;2689;50.954;7.116;2023-07-31T02:25:27;17.80;99.90
5334;DHT22;2689;50.954;7.116;2023-07-31T02:27:54;17.90;99.90
5334;DHT22;2689;50.954;7.116;2023-07-31T02:30:20;17.80;99.90
5334;DHT22;2689;50.954;7.116;2023-07-31T02:32:47;17.90;99.90
5334;DHT22;2689;50.954;7.116;2023-07-31T02:35:15;17.90;99.90
5334;DHT22;2689;50.954;7.116;2023-07-31T02:37:44;17.90;99.90
5334;DHT22;2689;50.954;7.116;2023-07-31T02:40:11;17.90;99.90
5334;DHT22;2689;50.954;7.116;2023-07-31T02:42:38;17.90;99.90
5334;DHT22;2689;50.954;7.116;2023-07-31T02:45:06;17.90;99.90
5334;DHT22;2689;50.954;7.116;2023-07-31T02:47:33;17.90;99.90
5334;DHT22;2689;50.954;7.116;2023-07-31T02:49:59;17.90;99.90
5334;DHT22;2689;50.954;7.116;2023-07-31T02:52:27;17.90;99.90
5334;DHT22;2689;50.954;7.116;2023-07-31T02:54:54;17.90;99.90
5334;DHT22;2689;50.954;7.116;2023-07-31T02:57:21;17.90;99.90
5334;DHT22;2689;50.954;7.116;2023-07-31T02:59:48;17.90;99.90
5334;DHT22;2689;50.954;7.116;2023-07-31T03:02:14;17.90;99.90
5334;DHT22;2689;50.954;7.116;2023-07-31T03:04:41;17.90;99.90
5334;DHT22;2689;50.954;7.116;2023-07-31T03:07:08;17.90;99.90
5334;DHT22;2689;50.954;7.116;2023-07-31T03:09:36;18.00;99.90
5334;DHT22;2689;50.954;7.116;2023-07-31T03:12:03;18.00;99.90
5334;DHT22;2689;50.954;7.116;2023-07-31T03:14:30;18.00;99.90
5334;DHT22;2689;50.954;7.116;2023-07-31T03:16:57;18.00;99.90
5334;DHT22;2689;50.954;7.116;2023-07-31T03:19:24;18.10;99.90
5334;DHT22;2689;50.954;7.116;2023-07-31T03:21:50;18.00;99.90
5334;DHT22;2689;50.954;7.116;2023-07-31T03:24:17;18.10;99.90
5334;DHT22;2689;50.954;7.116;2023-07-31T03:26:45;18.10;99.90
5334;DHT22;2689;50.954;7.116;2023-07-31T03:29:12;18.10;99.90
5334;DHT22;2689;50.954;7.116;2023-07-31T03:31:39;18.00;99.90
5334;DHT22;2689;50.954;7.116;2023-07-31T03:34:05;17.90;99.90
5334;DHT22;2689;50.954;7.116;2023-07-31T03:36:32;18.00;99.90
5334;DHT22;2689;50.954;7.116;2023-07-31T03:38:59;18.00;99.90
5334;DHT22;2689;50.954;7.116;2023-07-31T03:41:26;18.10;99.90
5334;DHT22;2689;50.954;7.116;2023-07-31T03:43:54;18.10;99.90
5334;DHT22;2689;50.954;7.116;2023-07-31T03:46:21;18.00;99.90
5334;DHT22;2689;50.954;7.116;2023-07-31T03:48:48;18.00;99.90
5334;DHT22;2689;50.954;7.116;2023-07-31T03:51:15;18.10;99.90
5334;DHT22;2689;50.954;7.116;2023-07-31T03:53:42;18.20;99.90
5334;DHT22;2689;50.954;7.116;2023-07-31T03:56:09;18.20;99.90
5334;DHT22;2689;50.954;7.116;2023-07-31T03:58:35;18.20;99.90
5334;DHT22;2689;50.954;7.116;2023-07-31T04:01:04;18.20;99.90
5334;DHT22;2689;50.954;7.116;2023-07-31T04:03:30;18.20;99.90
5334;DHT22;2689;50.954;7.116;2023-07-31T04:05:57;18.20;99.90
5334;DHT22;2689;50.954;7.116;2023-07-31T04:08:24;18.20;99.90
5334;DHT22;2689;50.954;7.116;2023-07-31T04:10:51;18.20;99.90
5334;DHT22;2689;50.954;7.116;2023-07-31T04:13:17;18.20;99.90
5334;DHT22;2689;50.954;7.116;2023-07-31T04:15:48;18.20;99.90
5334;DHT22;2689;50.954;7.116;2023-07-31T04:18:16;18.20;99.90
5334;DHT22;2689;50.954;7.116;2023-07-31T04:20:43;18.20;99.90
5334;DHT22;2689;50.954;7.116;2023-07-31T04:23:10;18.10;99.90
5334;DHT22;2689;50.954;7.116;2023-07-31T04:25:37;18.20;99.90
5334;DHT22;2689;50.954;7.116;2023-07-31T04:28:04;18.10;99.90
5334;DHT22;2689;50.954;7.116;2023-07-31T04:30:31;18.10;99.90
5334;DHT22;2689;50.954;7.116;2023-07-31T04:32:57;18.10;99.90
5334;DHT22;2689;50.954;7.116;2023-07-31T04:35:26;18.10;99.90
5334;DHT22;2689;50.954;7.116;2023-07-31T04:37:53;18.10;99.90
5334;DHT22;2689;50.954;7.116;2023-07-31T04:40:20;18.10;99.90
5334;DHT22;2689;50.954;7.116;2023-07-31T04:42:47;18.10;99.90
5334;DHT22;2689;50.954;7.116;2023-07-31T04:45:14;18.10;99.90
5334;DHT22;2689;50.954;7.116;2023-07-31T04:47:40;18.10;99.90
5334;DHT22;2689;50.954;7.116;2023-07-31T04:50:08;18.00;99.90
5334;DHT22;2689;50.954;7.116;2023-07-31T04:52:36;18.00;99.90
5334;DHT22;2689;50.954;7.116;2023-07-31T04:55:03;17.90;99.90
5334;DHT22;2689;50.954;7.116;2023-07-31T04:57:30;17.90;99.90
5334;DHT22;2689;50.954;7.116;2023-07-31T04:59:56;18.00;99.90
5334;DHT22;2689;50.954;7.116;2023-07-31T05:02:24;18.00;99.90
5334;DHT22;2689;50.954;7.116;2023-07-31T05:04:51;18.00;99.90
5334;DHT22;2689;50.954;7.116;2023-07-31T05:07:17;18.00;99.90
5334;DHT22;2689;50.954;7.116;2023-07-31T05:09:45;18.00;99.90
5334;DHT22;2689;50.954;7.116;2023-07-31T05:12:12;18.00;99.90
5334;DHT22;2689;50.954;7.116;2023-07-31T05:14:39;18.10;99.90
5334;DHT22;2689;50.954;7.116;2023-07-31T05:17:06;18.20;99.90
5334;DHT22;2689;50.954;7.116;2023-07-31T05:19:33;18.20;99.90
5334;DHT22;2689;50.954;7.116;2023-07-31T05:21:59;18.30;99.90
5334;DHT22;2689;50.954;7.116;2023-07-31T05:24:26;18.40;99.90
5334;DHT22;2689;50.954;7.116;2023-07-31T05:26:54;18.50;99.90
5334;DHT22;2689;50.954;7.116;2023-07-31T05:29:21;18.50;99.90
5334;DHT22;2689;50.954;7.116;2023-07-31T05:31:48;18.50;99.90
5334;DHT22;2689;50.954;7.116;2023-07-31T05:34:15;18.60;99.90
5334;DHT22;2689;50.954;7.116;2023-07-31T05:36:40;18.70;99.90
5334;DHT22;2689;50.954;7.116;2023-07-31T05:39:07;18.70;99.90
5334;DHT22;2689;50.954;7.116;2023-07-31T05:41:35;18.70;99.90
5334;DHT22;2689;50.954;7.116;2023-07-31T05:44:04;18.70;99.90
5334;DHT22;2689;50.954;7.116;2023-07-31T05:46:30;18.70;99.90
5334;DHT22;2689;50.954;7.116;2023-07-31T05:48:57;18.70;99.90
5334;DHT22;2689;50.954;7.116;2023-07-31T05:51:26;18.80;99.90
5334;DHT22;2689;50.954;7.116;2023-07-31T05:53:53;18.80;99.90
5334;DHT22;2689;50.954;7.116;2023-07-31T05:56:19;18.80;99.90
5334;DHT22;2689;50.954;7.116;2023-07-31T05:58:46;18.80;99.90
5334;DHT22;2689;50.954;7.116;2023-07-31T06:01:16;18.80;99.90
5334;DHT22;2689;50.954;7.116;2023-07-31T06:03:43;18.80;99.90
5334;DHT22;2689;50.954;7.116;2023-07-31T06:06:10;18.80;99.90
5334;DHT22;2689;50.954;7.116;2023-07-31T06:08:39;18.70;99.90
5334;DHT22;2689;50.954;7.116;2023-07-31T06:11:06;18.60;99.90
5334;DHT22;2689;50.954;7.116;2023-07-31T06:13:34;18.70;99.90
5334;DHT22;2689;50.954;7.116;2023-07-31T06:16:03;18.60;99.90
5334;DHT22;2689;50.954;7.116;2023-07-31T06:18:33;18.60;99.90
5334;DHT22;2689;50.954;7.116;2023-07-31T06:20:59;18.60;99.90
5334;DHT22;2689;50.954;7.116;2023-07-31T06:23:26;18.70;99.90
5334;DHT22;2689;50.954;7.116;2023-07-31T06:25:53;18.60;99.90
5334;DHT22;2689;50.954;7.116;2023-07-31T06:28:20;18.40;99.90
5334;DHT22;2689;50.954;7.116;2023-07-31T06:30:47;18.30;99.90
5334;DHT22;2689;50.954;7.116;2023-07-31T06:33:13;18.10;99.90
5334;DHT22;2689;50.954;7.116;2023-07-31T06:35:42;18.00;99.90
5334;DHT22;2689;50.954;7.116;2023-07-31T06:38:09;18.00;99.90
5334;DHT22;2689;50.954;7.116;2023-07-31T06:40:36;17.90;99.90
5334;DHT22;2689;50.954;7.116;2023-07-31T06:43:03;17.90;99.90
5334;DHT22;2689;50.954;7.116;2023-07-31T06:45:38;17.80;99.90
5334;DHT22;2689;50.954;7.116;2023-07-31T06:48:11;17.80;99.90
5334;DHT22;2689;50.954;7.116;2023-07-31T06:50:41;17.80;99.90
5334;DHT22;2689;50.954;7.116;2023-07-31T06:53:08;18.00;99.90
5334;DHT22;2689;50.954;7.116;2023-07-31T06:55:35;18.10;99.90
5334;DHT22;2689;50.954;7.116;2023-07-31T06:58:02;18.20;99.90
5334;DHT22;2689;50.954;7.116;2023-07-31T07:00:29;18.20;99.90
5334;DHT22;2689;50.954;7.116;2023-07-31T07:02:56;18.20;99.90
5334;DHT22;2689;50.954;7.116;2023-07-31T07:05:23;18.30;99.90
5334;DHT22;2689;50.954;7.116;2023-07-31T07:07:51;18.40;99.90
5334;DHT22;2689;50.954;7.116;2023-07-31T07:10:18;18.50;99.90
5334;DHT22;2689;50.954;7.116;2023-07-31T07:12:45;18.50;99.90
5334;DHT22;2689;50.954;7.116;2023-07-31T07:15:12;18.60;99.90
5334;DHT22;2689;50.954;7.116;2023-07-31T07:17:39;18.50;99.90
5334;DHT22;2689;50.954;7.116;2023-07-31T07:20:14;18.50;99.90
5334;DHT22;2689;50.954;7.116;2023-07-31T07:22:41;18.50;99.90
5334;DHT22;2689;50.954;7.116;2023-07-31T07:25:11;18.60;99.90
5334;DHT22;2689;50.954;7.116;2023-07-31T07:27:38;18.70;99.90
5334;DHT22;2689;50.954;7.116;2023-07-31T07:30:06;18.70;99.90
5334;DHT22;2689;50.954;7.116;2023-07-31T07:32:33;18.70;99.90
5334;DHT22;2689;50.954;7.116;2023-07-31T07:34:59;18.70;99.90
5334;DHT22;2689;50.954;7.116;2023-07-31T07:37:26;18.70;99.90
5334;DHT22;2689;50.954;7.116;2023-07-31T07:39:53;18.70;99.90
5334;DHT22;2689;50.954;7.116;2023-07-31T07:42:24;18.80;99.90
5334;DHT22;2689;50.954;7.116;2023-07-31T07:44:51;18.70;99.90
5334;DHT22;2689;50.954;7.116;2023-07-31T07:47:17;18.60;99.90
5334;DHT22;2689;50.954;7.116;2023-07-31T07:49:44;18.50;99.90
5334;DHT22;2689;50.954;7.116;2023-07-31T07:52:11;18.50;99.90
5334;DHT22;2689;50.954;7.116;2023-07-31T07:54:38;18.20;99.90
5334;DHT22;2689;50.954;7.116;2023-07-31T07:57:05;18.10;99.90
5334;DHT22;2689;50.954;7.116;2023-07-31T07:59:33;18.10;99.90
5334;DHT22;2689;50.954;7.116;2023-07-31T08:01:59;18.10;99.90
5334;DHT22;2689;50.954;7.116;2023-07-31T08:04:26;18.10;99.90
5334;DHT22;2689;50.954;7.116;2023-07-31T08:06:54;18.30;99.90
5334;DHT22;2689;50.954;7.116;2023-07-31T08:09:21;18.30;99.90
5334;DHT22;2689;50.954;7.116;2023-07-31T08:11:49;18.30;99.90
5334;DHT22;2689;50.954;7.116;2023-07-31T08:14:16;18.20;99.90
5334;DHT22;2689;50.954;7.116;2023-07-31T08:16:44;18.30;99.90
5334;DHT22;2689;50.954;7.116;2023-07-31T08:19:11;18.40;99.90
5334;DHT22;2689;50.954;7.116;2023-07-31T08:21:38;18.40;99.90
5334;DHT22;2689;50.954;7.116;2023-07-31T08:24:05;18.30;99.90
5334;DHT22;2689;50.954;7.116;2023-07-31T08:26:33;18.30;99.90
5334;DHT22;2689;50.954;7.116;2023-07-31T08:29:00;18.30;99.90
5334;DHT22;2689;50.954;7.116;2023-07-31T08:31:30;18.40;99.90
5334;DHT22;2689;50.954;7.116;2023-07-31T08:33:58;18.50;99.90
5334;DHT22;2689;50.954;7.116;2023-07-31T08:36:25;18.40;99.90
5334;DHT22;2689;50.954;7.116;2023-07-31T08:38:51;18.40;99.90
5334;DHT22;2689;50.954;7.116;2023-07-31T08:41:18;18.40;99.90
5334;DHT22;2689;50.954;7.116;2023-07-31T08:43:46;18.50;99.90
5334;DHT22;2689;50.954;7.116;2023-07-31T08:46:13;18.60;99.90
5334;DHT22;2689;50.954;7.116;2023-07-31T08:48:41;18.70;99.90
5334;DHT22;2689;50.954;7.116;2023-07-31T08:51:11;18.70;99.90
5334;DHT22;2689;50.954;7.116;2023-07-31T08:53:37;18.60;99.90
5334;DHT22;2689;50.954;7.116;2023-07-31T08:56:06;18.60;99.90
5334;DHT22;2689;50.954;7.116;2023-07-31T08:58:33;18.50;99.90
5334;DHT22;2689;50.954;7.116;2023-07-31T09:01:05;18.50;99.90
5334;DHT22;2689;50.954;7.116;2023-07-31T09:03:34;18.50;99.90
5334;DHT22;2689;50.954;7.116;2023-07-31T09:06:02;18.40;99.90
5334;DHT22;2689;50.954;7.116;2023-07-31T09:08:34;18.40;99.90
5334;DHT22;2689;50.954;7.116;2023-07-31T09:11:03;18.40;99.90
5334;DHT22;2689;50.954;7.116;2023-07-31T09:13:31;18.40;99.90
5334;DHT22;2689;50.954;7.116;2023-07-31T09:15:58;18.40;99.90
5334;DHT22;2689;50.954;7.116;2023-07-31T09:18:25;18.50;99.90
5334;DHT22;2689;50.954;7.116;2023-07-31T09:21:02;18.50;99.90
5334;DHT22;2689;50.954;7.116;2023-07-31T09:23:42;18.60;99.90
5334;DHT22;2689;50.954;7.116;2023-07-31T09:26:09;18.70;99.90
5334;DHT22;2689;50.954;7.116;2023-07-31T09:28:36;18.80;99.90
5334;DHT22;2689;50.954;7.116;2023-07-31T09:31:03;18.80;99.90
5334;DHT22;2689;50.954;7.116;2023-07-31T09:33:30;19.00;99.90
5334;DHT22;2689;50.954;7.116;2023-07-31T09:35:59;18.70;99.90
5334;DHT22;2689;50.954;7.116;2023-07-31T09:38:26;18.80;99.90
5334;DHT22;2689;50.954;7.116;2023-07-31T09:40:57;18.80;99.90
5334;DHT22;2689;50.954;7.116;2023-07-31T09:43:25;18.80;99.90
5334;DHT22;2689;50.954;7.116;2023-07-31T09:45:55;18.70;99.90
5334;DHT22;2689;50.954;7.116;2023-07-31T09:48:24;18.70;99.90
5334;DHT22;2689;50.954;7.116;2023-07-31T09:50:53;18.70;99.90
5334;DHT22;2689;50.954;7.116;2023-07-31T09:53:32;18.80;99.90
5334;DHT22;2689;50.954;7.116;2023-07-31T09:56:12;18.80;99.90
5334;DHT22;2689;50.954;7.116;2023-07-31T09:58:44;18.80;99.90
5334;DHT22;2689;50.954;7.116;2023-07-31T10:02:01;18.80;99.90
5334;DHT22;2689;50.954;7.116;2023-07-31T10:05:02;18.70;99.90
5334;DHT22;2689;50.954;7.116;2023-07-31T10:07:53;18.80;99.90
5334;DHT22;2689;50.954;7.116;2023-07-31T10:10:21;18.90;99.90
5334;DHT22;2689;50.954;7.116;2023-07-31T10:12:52;19.00;99.90
5334;DHT22;2689;50.954;7.116;2023-07-31T10:18:09;19.00;99.90
5334;DHT22;2689;50.954;7.116;2023-07-31T10:20:37;19.00;99.90
5334;DHT22;2689;50.954;7.116;2023-07-31T10:23:07;18.90;99.90
5334;DHT22;2689;50.954;7.116;2023-07-31T10:25:37;18.80;99.90
5334;DHT22;2689;50.954;7.116;2023-07-31T10:28:06;18.80;99.90
5334;DHT22;2689;50.954;7.116;2023-07-31T10:30:38;18.90;99.90
5334;DHT22;2689;50.954;7.116;2023-07-31T10:33:15;19.00;99.90
5334;DHT22;2689;50.954;7.116;2023-07-31T10:35:42;19.10;99.90
5334;DHT22;2689;50.954;7.116;2023-07-31T10:38:10;19.10;99.90
5334;DHT22;2689;50.954;7.116;2023-07-31T10:40:37;19.10;99.90
5334;DHT22;2689;50.954;7.116;2023-07-31T10:43:07;19.20;99.90
5334;DHT22;2689;50.954;7.116;2023-07-31T10:45:38;19.20;99.90
5334;DHT22;2689;50.954;7.116;2023-07-31T10:48:06;19.40;99.90
5334;DHT22;2689;50.954;7.116;2023-07-31T10:50:37;19.40;99.90
5334;DHT22;2689;50.954;7.116;2023-07-31T10:53:10;19.50;99.90
5334;DHT22;2689;50.954;7.116;2023-07-31T10:55:49;19.60;99.90
5334;DHT22;2689;50.954;7.116;2023-07-31T10:58:19;19.70;99.90
5334;DHT22;2689;50.954;7.116;2023-07-31T11:00:46;19.60;99.90
5334;DHT22;2689;50.954;7.116;2023-07-31T11:03:15;19.70;99.90
5334;DHT22;2689;50.954;7.116;2023-07-31T11:05:47;19.60;99.90
5334;DHT22;2689;50.954;7.116;2023-07-31T11:08:15;19.50;99.90
5334;DHT22;2689;50.954;7.116;2023-07-31T11:10:42;19.40;99.90
5334;DHT22;2689;50.954;7.116;2023-07-31T11:13:09;19.40;99.90
5334;DHT22;2689;50.954;7.116;2023-07-31T11:15:38;19.40;99.90
5334;DHT22;2689;50.954;7.116;2023-07-31T11:18:05;19.50;99.90
5334;DHT22;2689;50.954;7.116;2023-07-31T11:20:35;19.60;99.90
5334;DHT22;2689;50.954;7.116;2023-07-31T11:23:06;19.70;99.90
5334;DHT22;2689;50.954;7.116;2023-07-31T11:25:33;19.70;99.90
5334;DHT22;2689;50.954;7.116;2023-07-31T11:28:03;19.60;99.90
5334;DHT22;2689;50.954;7.116;2023-07-31T11:30:49;19.50;99.90
5334;DHT22;2689;50.954;7.116;2023-07-31T11:33:16;19.40;99.90
5334;DHT22;2689;50.954;7.116;2023-07-31T11:35:44;19.40;99.90
5334;DHT22;2689;50.954;7.116;2023-07-31T11:38:11;19.30;99.90
5334;DHT22;2689;50.954;7.116;2023-07-31T11:40:42;19.40;99.90
5334;DHT22;2689;50.954;7.116;2023-07-31T11:43:09;19.50;99.90
5334;DHT22;2689;50.954;7.116;2023-07-31T11:45:37;19.60;99.90
5334;DHT22;2689;50.954;7.116;2023-07-31T11:48:18;19.80;99.90
5334;DHT22;2689;50.954;7.116;2023-07-31T11:50:48;20.00;99.90
5334;DHT22;2689;50.954;7.116;2023-07-31T11:53:21;20.20;99.90
5334;DHT22;2689;50.954;7.116;2023-07-31T11:55:51;20.40;99.90
5334;DHT22;2689;50.954;7.116;2023-07-31T11:58:37;20.50;99.90
5334;DHT22;2689;50.954;7.116;2023-07-31T12:01:12;20.60;99.90
5334;DHT22;2689;50.954;7.116;2023-07-31T12:03:43;20.80;99.90
5334;DHT22;2689;50.954;7.116;2023-07-31T12:06:17;21.10;99.90
5334;DHT22;2689;50.954;7.116;2023-07-31T12:08:46;21.00;99.90
5334;DHT22;2689;50.954;7.116;2023-07-31T12:11:13;21.00;99.90
5334;DHT22;2689;50.954;7.116;2023-07-31T12:13:42;21.00;99.90
5334;DHT22;2689;50.954;7.116;2023-07-31T12:16:17;20.90;99.90
5334;DHT22;2689;50.954;7.116;2023-07-31T12:18:45;20.80;99.90
5334;DHT22;2689;50.954;7.116;2023-07-31T12:21:15;20.70;99.90
5334;DHT22;2689;50.954;7.116;2023-07-31T12:23:44;20.50;99.90
5334;DHT22;2689;50.954;7.116;2023-07-31T12:26:12;20.40;99.90
5334;DHT22;2689;50.954;7.116;2023-07-31T12:28:41;20.40;99.90
5334;DHT22;2689;50.954;7.116;2023-07-31T12:31:09;20.30;99.90
5334;DHT22;2689;50.954;7.116;2023-07-31T12:33:38;20.30;99.90
5334;DHT22;2689;50.954;7.116;2023-07-31T12:36:08;20.20;99.90
5334;DHT22;2689;50.954;7.116;2023-07-31T12:38:35;20.20;99.90
5334;DHT22;2689;50.954;7.116;2023-07-31T12:41:02;20.10;99.90
5334;DHT22;2689;50.954;7.116;2023-07-31T12:43:29;20.20;99.90
5334;DHT22;2689;50.954;7.116;2023-07-31T12:45:56;20.20;99.90
5334;DHT22;2689;50.954;7.116;2023-07-31T12:48:23;20.10;99.90
5334;DHT22;2689;50.954;7.116;2023-07-31T12:50:50;20.20;99.90
5334;DHT22;2689;50.954;7.116;2023-07-31T12:53:18;20.20;99.90
5334;DHT22;2689;50.954;7.116;2023-07-31T12:55:45;20.30;99.90
5334;DHT22;2689;50.954;7.116;2023-07-31T12:58:12;20.40;99.90
5334;DHT22;2689;50.954;7.116;2023-07-31T13:00:38;20.30;99.90
5334;DHT22;2689;50.954;7.116;2023-07-31T13:03:05;20.40;99.90
5334;DHT22;2689;50.954;7.116;2023-07-31T13:05:32;20.30;99.90
5334;DHT22;2689;50.954;7.116;2023-07-31T13:07:59;20.40;99.90
5334;DHT22;2689;50.954;7.116;2023-07-31T13:10:27;20.40;99.90
5334;DHT22;2689;50.954;7.116;2023-07-31T13:12:55;20.50;99.90
5334;DHT22;2689;50.954;7.116;2023-07-31T13:15:22;20.50;99.90
5334;DHT22;2689;50.954;7.116;2023-07-31T13:17:48;20.60;99.90
5334;DHT22;2689;50.954;7.116;2023-07-31T13:20:15;20.70;99.90
5334;DHT22;2689;50.954;7.116;2023-07-31T13:22:42;20.80;99.90
5334;DHT22;2689;50.954;7.116;2023-07-31T13:25:09;20.80;99.90
5334;DHT22;2689;50.954;7.116;2023-07-31T13:27:43;20.80;99.90
5334;DHT22;2689;50.954;7.116;2023-07-31T13:30:10;20.90;99.90
5334;DHT22;2689;50.954;7.116;2023-07-31T13:32:37;20.90;99.90
5334;DHT22;2689;50.954;7.116;2023-07-31T13:35:05;20.90;99.90
5334;DHT22;2689;50.954;7.116;2023-07-31T13:37:31;20.90;99.90
5334;DHT22;2689;50.954;7.116;2023-07-31T13:39:58;20.80;99.90
5334;DHT22;2689;50.954;7.116;2023-07-31T13:42:26;20.80;99.90
5334;DHT22;2689;50.954;7.116;2023-07-31T13:44:57;20.90;99.90
5334;DHT22;2689;50.954;7.116;2023-07-31T13:47:23;21.00;99.90
5334;DHT22;2689;50.954;7.116;2023-07-31T13:49:50;21.20;99.90
5334;DHT22;2689;50.954;7.116;2023-07-31T13:52:17;21.30;99.90
5334;DHT22;2689;50.954;7.116;2023-07-31T13:54:44;21.40;99.90
5334;DHT22;2689;50.954;7.116;2023-07-31T13:57:11;21.60;99.90
5334;DHT22;2689;50.954;7.116;2023-07-31T13:59:37;21.80;99.90
5334;DHT22;2689;50.954;7.116;2023-07-31T14:02:06;21.90;99.90
5334;DHT22;2689;50.954;7.116;2023-07-31T14:04:33;22.20;99.90
5334;DHT22;2689;50.954;7.116;2023-07-31T14:07:00;22.50;99.90
5334;DHT22;2689;50.954;7.116;2023-07-31T14:09:26;22.70;99.90
5334;DHT22;2689;50.954;7.116;2023-07-31T14:11:54;23.10;99.90
5334;DHT22;2689;50.954;7.116;2023-07-31T14:14:20;23.50;99.90
5334;DHT22;2689;50.954;7.116;2023-07-31T14:16:47;23.80;98.50
5334;DHT22;2689;50.954;7.116;2023-07-31T14:19:15;23.90;99.30
5334;DHT22;2689;50.954;7.116;2023-07-31T14:21:42;23.80;97.30
5334;DHT22;2689;50.954;7.116;2023-07-31T14:24:09;23.70;98.00
5334;DHT22;2689;50.954;7.116;2023-07-31T14:26:36;23.40;97.80
5334;DHT22;2689;50.954;7.116;2023-07-31T14:29:05;23.10;97.90
5334;DHT22;2689;50.954;7.116;2023-07-31T14:31:31;22.80;99.20
5334;DHT22;2689;50.954;7.116;2023-07-31T14:33:58;22.70;99.40
5334;DHT22;2689;50.954;7.116;2023-07-31T14:36:26;22.60;99.80
5334;DHT22;2689;50.954;7.116;2023-07-31T14:38:53;22.40;99.90
5334;DHT22;2689;50.954;7.116;2023-07-31T14:41:20;22.10;99.90
5334;DHT22;2689;50.954;7.116;2023-07-31T14:43:47;22.00;99.90
5334;DHT22;2689;50.954;7.116;2023-07-31T14:46:13;21.80;99.90
5334;DHT22;2689;50.954;7.116;2023-07-31T14:48:42;21.80;99.90
5334;DHT22;2689;50.954;7.116;2023-07-31T14:51:09;21.70;99.90
5334;DHT22;2689;50.954;7.116;2023-07-31T14:53:38;21.70;99.90
5334;DHT22;2689;50.954;7.116;2023-07-31T14:56:07;21.50;99.90
5334;DHT22;2689;50.954;7.116;2023-07-31T14:58:34;21.40;99.90
5334;DHT22;2689;50.954;7.116;2023-07-31T15:01:01;21.40;99.90
5334;DHT22;2689;50.954;7.116;2023-07-31T15:03:28;21.30;99.90
5334;DHT22;2689;50.954;7.116;2023-07-31T15:05:55;21.30;99.90
5334;DHT22;2689;50.954;7.116;2023-07-31T15:08:22;21.30;99.90
5334;DHT22;2689;50.954;7.116;2023-07-31T15:10:50;21.30;99.90
5334;DHT22;2689;50.954;7.116;2023-07-31T15:13:22;21.30;99.90
5334;DHT22;2689;50.954;7.116;2023-07-31T15:15:49;21.20;99.90
5334;DHT22;2689;50.954;7.116;2023-07-31T15:18:16;21.20;99.90
5334;DHT22;2689;50.954;7.116;2023-07-31T15:20:43;21.20;99.90
5334;DHT22;2689;50.954;7.116;2023-07-31T15:23:10;21.20;99.90
5334;DHT22;2689;50.954;7.116;2023-07-31T15:25:37;21.20;99.90
5334;DHT22;2689;50.954;7.116;2023-07-31T15:28:05;21.20;99.90
5334;DHT22;2689;50.954;7.116;2023-07-31T15:30:32;21.20;99.90
5334;DHT22;2689;50.954;7.116;2023-07-31T15:32:59;21.10;99.90
5334;DHT22;2689;50.954;7.116;2023-07-31T15:35:26;21.20;99.90
5334;DHT22;2689;50.954;7.116;2023-07-31T15:38:00;21.10;99.90
5334;DHT22;2689;50.954;7.116;2023-07-31T15:40:27;21.10;99.90
5334;DHT22;2689;50.954;7.116;2023-07-31T15:42:54;21.10;99.90
5334;DHT22;2689;50.954;7.116;2023-07-31T15:45:22;20.90;99.90
5334;DHT22;2689;50.954;7.116;2023-07-31T15:47:49;21.00;99.90
5334;DHT22;2689;50.954;7.116;2023-07-31T15:50:16;21.00;99.90
5334;DHT22;2689;50.954;7.116;2023-07-31T15:52:42;21.00;99.90
5334;DHT22;2689;50.954;7.116;2023-07-31T15:55:10;21.00;99.90
5334;DHT22;2689;50.954;7.116;2023-07-31T15:57:36;20.90;99.90
5334;DHT22;2689;50.954;7.116;2023-07-31T16:00:04;21.00;99.90
5334;DHT22;2689;50.954;7.116;2023-07-31T16:02:34;21.00;99.90
5334;DHT22;2689;50.954;7.116;2023-07-31T16:05:01;20.90;99.90
5334;DHT22;2689;50.954;7.116;2023-07-31T16:07:27;20.90;99.90
5334;DHT22;2689;50.954;7.116;2023-07-31T16:09:54;20.80;99.90
5334;DHT22;2689;50.954;7.116;2023-07-31T16:12:21;20.70;99.90